createdAt,value
2023-02-18T00:01:32.820Z,12.09
2023-02-18T00:04:01.030Z,12.08
2023-02-18T00:06:33.174Z,12.10
2023-02-18T00:09:02.647Z,12.08
2023-02-18T00:11:33.863Z,12.12
2023-02-18T00:14:03.323Z,12.16
2023-02-18T00:16:31.626Z,12.19
2023-02-18T00:19:01.917Z,12.22
2023-02-18T00:21:34.765Z,12.22
2023-02-18T00:24:01.819Z,12.26
2023-02-18T00:26:28.982Z,12.26
2023-02-18T00:28:56.094Z,12.25
2023-02-18T00:31:29.359Z,12.25
2023-02-18T00:33:58.377Z,12.25
2023-02-18T00:36:26.998Z,12.25
2023-02-18T00:38:59.792Z,12.23
2023-02-18T00:41:29.465Z,12.23
2023-02-18T00:43:57.056Z,12.25
2023-02-18T00:46:24.763Z,12.23
2023-02-18T00:48:51.594Z,12.22
2023-02-18T00:51:18.728Z,12.25
2023-02-18T00:53:47.531Z,12.26
2023-02-18T00:56:14.484Z,12.27
2023-02-18T00:58:41.277Z,12.26
2023-02-18T01:01:10.658Z,12.25
2023-02-18T01:03:40.360Z,12.26
2023-02-18T01:06:09.126Z,12.24
2023-02-18T01:08:37.530Z,12.27
2023-02-18T01:11:05.854Z,12.26
2023-02-18T01:13:33.156Z,12.25
2023-02-18T01:16:00.340Z,12.23
2023-02-18T01:18:28.041Z,12.25
2023-02-18T01:20:55.095Z,12.26
2023-02-18T01:23:23.388Z,12.26
2023-02-18T01:25:50.843Z,12.26
2023-02-18T01:28:18.699Z,12.25
2023-02-18T01:30:46.041Z,12.27
2023-02-18T01:33:12.870Z,12.24
2023-02-18T01:35:41.281Z,12.24
2023-02-18T01:38:11.880Z,12.23
2023-02-18T01:40:48.770Z,12.22
2023-02-18T01:43:16.197Z,12.21
2023-02-18T01:46:05.069Z,12.19
2023-02-18T01:48:43.393Z,12.17
2023-02-18T01:51:34.961Z,12.17
2023-02-18T01:54:08.502Z,12.16
2023-02-18T01:57:10.560Z,12.13
2023-02-18T01:59:41.264Z,12.12
2023-02-18T02:02:20.353Z,12.12
2023-02-18T02:04:48.730Z,12.13
2023-02-18T02:07:18.829Z,12.15
2023-02-18T02:09:48.886Z,12.14
2023-02-18T02:13:09.808Z,12.16
2023-02-18T02:15:45.441Z,12.16
2023-02-18T02:18:34.837Z,12.14
2023-02-18T02:21:34.417Z,12.16
2023-02-18T02:24:32.359Z,12.16
2023-02-18T02:27:35.545Z,12.22
2023-02-18T02:30:36.150Z,12.24
2023-02-18T02:33:14.792Z,12.26
2023-02-18T02:36:04.731Z,12.28
2023-02-18T02:38:54.495Z,12.28
2023-02-18T02:41:50.434Z,12.29
2023-02-18T02:44:49.514Z,12.32
2023-02-18T02:47:45.236Z,12.29
2023-02-18T02:50:35.409Z,12.29
2023-02-18T02:53:17.281Z,12.29
2023-02-18T02:55:44.018Z,12.28
2023-02-18T02:58:17.304Z,12.26
2023-02-18T03:01:02.228Z,12.24
2023-02-18T03:03:37.896Z,12.24
2023-02-18T03:06:29.632Z,12.23
2023-02-18T03:09:15.193Z,12.22
2023-02-18T03:11:58.523Z,12.21
2023-02-18T03:14:44.562Z,12.23
2023-02-18T03:17:30.271Z,12.22
2023-02-18T03:20:28.389Z,12.23
2023-02-18T03:23:00.110Z,12.23
2023-02-18T03:25:28.575Z,12.22
2023-02-18T03:28:12.352Z,12.22
2023-02-18T03:30:48.130Z,12.24
2023-02-18T03:33:25.206Z,12.23
2023-02-18T03:35:54.698Z,12.23
2023-02-18T03:38:42.284Z,12.26
2023-02-18T03:41:09.170Z,12.25
2023-02-18T03:43:36.103Z,12.24
2023-02-18T03:46:03.798Z,12.24
2023-02-18T03:48:30.575Z,12.25
2023-02-18T03:50:57.353Z,12.28
2023-02-18T03:53:24.123Z,12.27
2023-02-18T03:55:50.853Z,12.26
2023-02-18T03:58:17.684Z,12.28
2023-02-18T04:00:45.369Z,12.27
2023-02-18T04:03:12.099Z,12.28
2023-02-18T04:05:38.873Z,12.25
2023-02-18T04:08:05.700Z,12.25
2023-02-18T04:10:32.468Z,12.25
2023-02-18T04:12:59.447Z,12.26
2023-02-18T04:15:26.324Z,12.26
2023-02-18T04:17:53.412Z,12.27
2023-02-18T04:20:20.166Z,12.28
2023-02-18T04:22:47.159Z,12.24
2023-02-18T04:25:13.978Z,12.24
2023-02-18T04:27:40.756Z,12.24
2023-02-18T04:30:08.278Z,12.23
2023-02-18T04:32:35.236Z,12.25
2023-02-18T04:35:02.111Z,12.25
2023-02-18T04:37:29.053Z,12.26
2023-02-18T04:39:55.941Z,12.27
2023-02-18T04:42:23.499Z,12.28
2023-02-18T04:44:50.270Z,12.28
2023-02-18T04:47:17.065Z,12.29
2023-02-18T04:49:43.852Z,12.28
2023-02-18T04:52:10.624Z,12.29
2023-02-18T04:54:37.451Z,12.30
2023-02-18T04:57:04.594Z,12.31
2023-02-18T04:59:31.726Z,12.31
2023-02-18T05:01:58.658Z,12.33
2023-02-18T05:04:28.744Z,12.35
2023-02-18T05:06:55.610Z,12.35
2023-02-18T05:09:23.047Z,12.34
2023-02-18T05:11:50.096Z,12.34
2023-02-18T05:14:17.635Z,12.33
2023-02-18T05:16:44.495Z,12.30
2023-02-18T05:19:15.679Z,12.28
2023-02-18T05:21:45.811Z,12.26
2023-02-18T05:24:12.886Z,12.27
2023-02-18T05:26:40.126Z,12.28
2023-02-18T05:29:06.898Z,12.31
2023-02-18T05:31:34.047Z,12.32
2023-02-18T05:34:00.948Z,12.29
2023-02-18T05:36:27.757Z,12.28
2023-02-18T05:38:54.662Z,12.28
2023-02-18T05:41:21.751Z,12.30
2023-02-18T05:44:06.956Z,12.32
2023-02-18T05:46:34.200Z,12.34
2023-02-18T05:49:01.136Z,12.33
2023-02-18T05:51:30.610Z,12.31
2023-02-18T05:53:57.553Z,12.30
2023-02-18T05:56:24.319Z,12.28
2023-02-18T05:58:51.134Z,12.27
2023-02-18T06:01:18.159Z,12.28
2023-02-18T06:03:45.026Z,12.25
2023-02-18T06:06:14.873Z,12.24
2023-02-18T06:08:41.751Z,12.25
2023-02-18T06:11:08.537Z,12.25
2023-02-18T06:13:35.511Z,12.29
2023-02-18T06:16:02.485Z,12.30
2023-02-18T06:18:29.905Z,12.28
2023-02-18T06:20:56.716Z,12.29
2023-02-18T06:23:23.537Z,12.29
2023-02-18T06:25:50.941Z,12.30
2023-02-18T06:28:18.498Z,12.31
2023-02-18T06:30:46.179Z,12.28
2023-02-18T06:33:13.313Z,12.31
2023-02-18T06:35:40.118Z,12.31
2023-02-18T06:38:07.140Z,12.34
2023-02-18T06:40:34.324Z,12.33
2023-02-18T06:43:01.098Z,12.33
2023-02-18T06:45:27.942Z,12.34
2023-02-18T06:47:54.875Z,12.34
2023-02-18T06:50:21.769Z,12.35
2023-02-18T06:52:48.552Z,12.37
2023-02-18T06:55:18.488Z,12.37
2023-02-18T06:57:45.287Z,12.39
2023-02-18T07:00:12.685Z,12.38
2023-02-18T07:02:39.529Z,12.40
2023-02-18T07:05:06.618Z,12.41
2023-02-18T07:07:33.750Z,12.41
2023-02-18T07:10:00.555Z,12.40
2023-02-18T07:12:27.798Z,12.43
2023-02-18T07:14:54.740Z,12.48
2023-02-18T07:17:21.717Z,12.50
2023-02-18T07:19:48.506Z,12.52
2023-02-18T07:22:15.296Z,12.52
2023-02-18T07:24:42.498Z,12.57
2023-02-18T07:27:09.480Z,12.58
2023-02-18T07:29:36.340Z,12.62
2023-02-18T07:32:03.173Z,12.65
2023-02-18T07:34:30.014Z,12.69
2023-02-18T07:36:56.897Z,12.70
2023-02-18T07:39:23.645Z,12.69
2023-02-18T07:41:50.441Z,12.71
2023-02-18T07:44:17.294Z,12.75
2023-02-18T07:46:46.597Z,12.80
2023-02-18T07:49:14.671Z,12.82
2023-02-18T07:51:41.518Z,12.84
2023-02-18T07:54:08.846Z,12.85
2023-02-18T07:56:35.727Z,12.85
2023-02-18T07:59:08.764Z,12.86
2023-02-18T08:01:44.997Z,12.86
2023-02-18T08:04:12.442Z,12.86
2023-02-18T08:06:48.169Z,12.88
2023-02-18T08:09:18.168Z,12.89
2023-02-18T08:11:45.082Z,12.91
2023-02-18T08:14:12.205Z,12.92
2023-02-18T08:16:39.791Z,12.97
2023-02-18T08:19:07.860Z,12.98
2023-02-18T08:21:34.942Z,13.00
2023-02-18T08:24:02.390Z,13.01
2023-02-18T08:26:29.766Z,13.05
2023-02-18T08:28:56.894Z,13.11
2023-02-18T08:31:30.600Z,13.17
2023-02-18T08:34:00.421Z,13.22
2023-02-18T08:36:28.302Z,13.23
2023-02-18T08:38:55.215Z,13.24
2023-02-18T08:41:22.108Z,13.21
2023-02-18T08:43:49.422Z,13.16
2023-02-18T08:46:27.163Z,13.10
2023-02-18T08:49:03.891Z,13.13
2023-02-18T08:51:31.670Z,13.20
2023-02-18T08:54:02.416Z,13.31
2023-02-18T08:56:29.446Z,13.38
2023-02-18T08:58:56.209Z,13.47
2023-02-18T09:01:27.731Z,13.56
2023-02-18T09:03:54.634Z,13.60
2023-02-18T09:06:21.699Z,13.68
2023-02-18T09:08:48.731Z,13.78
2023-02-18T09:11:16.255Z,13.77
2023-02-18T09:13:43.347Z,13.79
2023-02-18T09:16:20.701Z,13.80
2023-02-18T09:18:49.388Z,13.78
2023-02-18T09:21:20.722Z,13.71
2023-02-18T09:23:47.839Z,13.68
2023-02-18T09:26:17.915Z,13.63
2023-02-18T09:28:45.142Z,13.60
2023-02-18T09:31:18.915Z,13.59
2023-02-18T09:33:57.032Z,13.60
2023-02-18T09:36:24.084Z,13.63
2023-02-18T09:38:51.379Z,13.60
2023-02-18T09:41:57.087Z,13.62
2023-02-18T09:44:35.992Z,13.70
2023-02-18T09:47:35.804Z,13.78
2023-02-18T09:50:29.275Z,13.76
2023-02-18T09:53:00.201Z,13.81
2023-02-18T09:55:41.157Z,13.83
2023-02-18T09:58:16.190Z,13.78
2023-02-18T10:00:50.884Z,13.66
2023-02-18T10:03:25.150Z,13.59
2023-02-18T10:06:01.691Z,13.58
2023-02-18T10:08:39.833Z,13.58
2023-02-18T10:11:17.662Z,13.56
2023-02-18T10:13:45.468Z,13.59
2023-02-18T10:16:18.947Z,13.57
2023-02-18T10:18:53.921Z,13.59
2023-02-18T10:21:38.338Z,13.66
2023-02-18T10:24:30.688Z,13.65
2023-02-18T10:26:58.878Z,13.67
2023-02-18T10:29:27.612Z,13.57
2023-02-18T10:32:35.482Z,13.50
2023-02-18T10:35:19.973Z,13.50
2023-02-18T10:38:37.399Z,13.51
2023-02-18T10:41:39.814Z,13.52
2023-02-18T10:44:43.095Z,13.51
2023-02-18T10:47:38.117Z,13.54
2023-02-18T10:50:29.155Z,13.57
2023-02-18T10:53:01.713Z,13.58
2023-02-18T10:55:49.358Z,13.63
2023-02-18T10:58:43.355Z,13.69
2023-02-18T11:01:21.666Z,13.63
2023-02-18T11:03:52.798Z,13.61
2023-02-18T11:06:46.302Z,13.56
2023-02-18T11:09:34.498Z,13.58
2023-02-18T11:12:19.048Z,13.71
2023-02-18T11:15:05.148Z,13.77
2023-02-18T11:17:34.934Z,13.82
2023-02-18T11:20:31.720Z,13.82
2023-02-18T11:23:21.826Z,13.80
2023-02-18T11:26:01.925Z,13.78
2023-02-18T11:28:31.140Z,14.01
2023-02-18T11:31:02.712Z,14.09
2023-02-18T11:33:41.481Z,13.99
2023-02-18T11:36:25.015Z,13.93
2023-02-18T11:39:04.684Z,13.80
2023-02-18T11:41:43.955Z,13.77
2023-02-18T11:44:33.605Z,13.79
2023-02-18T11:47:35.643Z,13.75
2023-02-18T11:50:08.092Z,13.77
2023-02-18T11:52:38.355Z,13.74
2023-02-18T11:55:15.633Z,13.77
2023-02-18T11:58:00.934Z,13.81
2023-02-18T12:00:49.336Z,13.90
2023-02-18T12:04:07.824Z,13.85
2023-02-18T12:06:52.950Z,13.76
2023-02-18T12:09:31.892Z,13.77
2023-02-18T12:12:16.090Z,13.80
2023-02-18T12:14:44.417Z,13.89
2023-02-18T12:17:26.579Z,13.94
2023-02-18T12:20:23.807Z,13.91
2023-02-18T12:23:16.906Z,13.89
2023-02-18T12:26:34.071Z,13.87
2023-02-18T12:29:44.000Z,13.95
2023-02-18T12:32:33.096Z,14.07
2023-02-18T12:35:12.012Z,14.06
2023-02-18T12:37:59.942Z,14.07
2023-02-18T12:41:09.523Z,14.30
2023-02-18T12:44:19.040Z,14.31
2023-02-18T12:47:21.789Z,14.35
2023-02-18T12:50:34.995Z,14.25
2023-02-18T12:53:35.975Z,14.15
2023-02-18T12:56:50.077Z,14.01
2023-02-18T12:59:50.933Z,13.94
2023-02-18T13:02:42.006Z,13.85
2023-02-18T13:05:33.535Z,13.79
2023-02-18T13:08:30.374Z,13.75
2023-02-18T13:11:19.406Z,13.70
2023-02-18T13:14:16.491Z,13.71
2023-02-18T13:16:48.858Z,13.70
2023-02-18T13:19:43.183Z,13.72
2023-02-18T13:22:14.656Z,13.73
2023-02-18T13:24:47.728Z,13.85
2023-02-18T13:27:33.697Z,13.85
2023-02-18T13:30:33.865Z,13.81
2023-02-18T13:33:32.655Z,13.88
2023-02-18T13:36:31.550Z,14.17
2023-02-18T13:39:20.338Z,14.08
2023-02-18T13:41:51.774Z,14.06
2023-02-18T13:44:22.345Z,13.98
2023-02-18T13:46:59.338Z,13.89
2023-02-18T13:49:40.099Z,13.77
2023-02-18T13:52:18.140Z,13.78
2023-02-18T13:54:47.049Z,13.78
2023-02-18T13:57:26.815Z,14.30
2023-02-18T14:00:02.842Z,14.67
2023-02-18T14:02:36.607Z,15.08
2023-02-18T14:05:20.388Z,16.16
2023-02-18T14:08:11.507Z,16.34
2023-02-18T14:10:39.780Z,15.85
2023-02-18T14:13:37.855Z,16.05
2023-02-18T14:16:04.733Z,16.31
2023-02-18T14:18:38.563Z,16.42
2023-02-18T14:21:22.585Z,16.16
2023-02-18T14:24:04.116Z,15.62
2023-02-18T14:26:47.101Z,15.00
2023-02-18T14:29:31.501Z,14.77
2023-02-18T14:32:09.917Z,14.61
2023-02-18T14:35:21.712Z,14.55
2023-02-18T14:38:27.598Z,14.40
2023-02-18T14:41:30.043Z,14.38
2023-02-18T14:44:14.839Z,14.44
2023-02-18T14:47:34.032Z,14.28
2023-02-18T14:50:10.607Z,14.17
2023-02-18T14:52:53.174Z,14.23
2023-02-18T14:55:29.909Z,14.18
2023-02-18T14:58:05.861Z,14.17
2023-02-18T15:00:41.095Z,14.19
2023-02-18T15:03:17.053Z,14.10
2023-02-18T15:05:45.527Z,14.07
2023-02-18T15:08:26.007Z,13.93
2023-02-18T15:11:00.830Z,13.92
2023-02-18T15:13:38.263Z,13.94
2023-02-18T15:16:34.057Z,13.95
2023-02-18T15:19:13.527Z,13.88
2023-02-18T15:21:45.736Z,13.78
2023-02-18T15:24:31.859Z,13.66
2023-02-18T15:27:18.940Z,13.56
2023-02-18T15:30:00.739Z,13.55
2023-02-18T15:32:29.483Z,13.52
2023-02-18T15:35:03.567Z,13.57
2023-02-18T15:37:31.702Z,13.62
2023-02-18T15:39:58.800Z,13.51
2023-02-18T15:42:31.833Z,13.48
2023-02-18T15:45:15.821Z,13.41
2023-02-18T15:47:45.391Z,13.38
2023-02-18T15:50:22.758Z,13.28
2023-02-18T15:52:51.699Z,13.23
2023-02-18T15:55:35.408Z,13.21
2023-02-18T15:58:11.423Z,13.19
2023-02-18T16:00:50.223Z,13.15
2023-02-18T16:03:26.094Z,13.03
2023-02-18T16:06:12.702Z,12.98
2023-02-18T16:08:41.060Z,12.95
2023-02-18T16:11:13.368Z,12.94
2023-02-18T16:13:49.444Z,12.94
2023-02-18T16:16:33.784Z,12.93
2023-02-18T16:19:02.107Z,12.85
2023-02-18T16:21:44.809Z,12.84
2023-02-18T16:24:29.399Z,12.80
2023-02-18T16:27:01.287Z,12.78
2023-02-18T16:29:41.846Z,12.72
2023-02-18T16:32:09.193Z,12.70
2023-02-18T16:34:36.663Z,12.62
2023-02-18T16:37:22.420Z,12.57
2023-02-18T16:39:54.455Z,12.60
2023-02-18T16:42:21.864Z,12.59
2023-02-18T16:44:52.860Z,12.50
2023-02-18T16:47:20.738Z,12.43
2023-02-18T16:49:51.250Z,12.42
2023-02-18T16:52:19.368Z,12.42
2023-02-18T16:54:48.143Z,12.41
2023-02-18T16:57:15.187Z,12.38
2023-02-18T16:59:42.027Z,12.35
2023-02-18T17:02:22.451Z,12.35
2023-02-18T17:04:49.318Z,12.38
2023-02-18T17:07:16.497Z,12.38
2023-02-18T17:09:44.785Z,12.34
2023-02-18T17:12:12.874Z,12.31
2023-02-18T17:14:40.228Z,12.30
2023-02-18T17:17:14.024Z,12.24
2023-02-18T17:19:40.914Z,12.25
2023-02-18T17:22:07.789Z,12.25
2023-02-18T17:24:34.716Z,12.23
2023-02-18T17:27:03.573Z,12.21
2023-02-18T17:29:30.585Z,12.16
2023-02-18T17:31:58.368Z,12.10
2023-02-18T17:34:31.064Z,12.10
2023-02-18T17:36:58.567Z,12.12
2023-02-18T17:39:32.640Z,12.07
2023-02-18T17:41:59.559Z,12.06
2023-02-18T17:44:27.749Z,12.05
2023-02-18T17:46:55.410Z,11.94
2023-02-18T17:49:23.170Z,11.93
2023-02-18T17:51:58.148Z,11.90
2023-02-18T17:54:28.184Z,11.91
2023-02-18T17:56:56.013Z,11.88
2023-02-18T17:59:28.859Z,11.92
2023-02-18T18:01:56.051Z,11.94
2023-02-18T18:04:23.249Z,11.92
2023-02-18T18:06:59.770Z,11.87
2023-02-18T18:09:31.098Z,11.86
2023-02-18T18:11:58.812Z,11.88
2023-02-18T18:14:25.827Z,11.92
2023-02-18T18:16:52.983Z,11.83
2023-02-18T18:19:20.102Z,11.79
2023-02-18T18:21:50.861Z,11.77
2023-02-18T18:24:17.675Z,11.76
2023-02-18T18:26:44.428Z,11.76
2023-02-18T18:29:11.481Z,11.75
2023-02-18T18:31:38.545Z,11.75
2023-02-18T18:34:06.000Z,11.75
2023-02-18T18:36:33.352Z,11.70
2023-02-18T18:39:00.429Z,11.68
2023-02-18T18:41:27.414Z,11.68
2023-02-18T18:43:54.399Z,11.66
2023-02-18T18:46:22.719Z,11.65
2023-02-18T18:48:51.933Z,11.65
2023-02-18T18:51:32.610Z,11.62
2023-02-18T18:54:00.044Z,11.63
2023-02-18T18:56:27.887Z,11.63
2023-02-18T18:58:55.533Z,11.62
2023-02-18T19:01:30.245Z,11.63
2023-02-18T19:03:57.245Z,11.54
2023-02-18T19:06:26.846Z,11.50
2023-02-18T19:08:53.829Z,11.43
2023-02-18T19:11:20.789Z,11.36
2023-02-18T19:13:48.702Z,11.39
2023-02-18T19:16:20.643Z,11.37
2023-02-18T19:18:48.567Z,11.31
2023-02-18T19:21:16.570Z,11.30
2023-02-18T19:23:43.523Z,11.29
2023-02-18T19:26:11.461Z,11.19
2023-02-18T19:28:38.803Z,11.19
2023-02-18T19:31:11.137Z,11.14
2023-02-18T19:33:46.762Z,11.09
2023-02-18T19:36:14.741Z,11.11
2023-02-18T19:38:42.051Z,11.04
2023-02-18T19:41:14.653Z,10.99
2023-02-18T19:43:43.977Z,10.92
2023-02-18T19:46:14.569Z,10.89
2023-02-18T19:48:42.336Z,10.86
2023-02-18T19:51:10.181Z,10.84
2023-02-18T19:53:37.754Z,10.75
2023-02-18T19:56:08.503Z,10.74
2023-02-18T19:58:37.372Z,10.71
2023-02-18T20:01:04.731Z,10.75
2023-02-18T20:03:31.575Z,10.72
2023-02-18T20:05:58.458Z,10.68
2023-02-18T20:08:25.293Z,10.62
2023-02-18T20:10:59.682Z,10.69
2023-02-18T20:13:27.361Z,10.70
2023-02-18T20:15:54.651Z,10.70
2023-02-18T20:18:22.305Z,10.70
2023-02-18T20:20:52.382Z,10.64
2023-02-18T20:23:19.916Z,10.63
2023-02-18T20:25:48.720Z,10.64
2023-02-18T20:28:16.367Z,10.66
2023-02-18T20:30:44.152Z,10.68
2023-02-18T20:33:11.230Z,10.64
2023-02-18T20:35:38.694Z,10.67
2023-02-18T20:38:05.651Z,10.70
2023-02-18T20:40:32.585Z,10.72
2023-02-18T20:42:59.432Z,10.60
2023-02-18T20:45:26.608Z,10.54
2023-02-18T20:47:53.369Z,10.56
2023-02-18T20:50:21.751Z,10.56
2023-02-18T20:52:48.606Z,10.55
2023-02-18T20:55:15.492Z,10.53
2023-02-18T20:57:42.527Z,10.52
2023-02-18T21:00:10.400Z,10.47
2023-02-18T21:02:37.227Z,10.43
2023-02-18T21:05:04.223Z,10.37
2023-02-18T21:07:31.006Z,10.36
2023-02-18T21:09:57.770Z,10.33
2023-02-18T21:12:24.652Z,10.30
2023-02-18T21:14:51.481Z,10.27
2023-02-18T21:17:18.270Z,10.26
2023-02-18T21:19:45.062Z,10.24
2023-02-18T21:22:11.860Z,10.22
2023-02-18T21:24:38.692Z,10.15
2023-02-18T21:27:05.485Z,10.07
2023-02-18T21:29:32.350Z,10.03
2023-02-18T21:31:59.359Z,9.97
2023-02-18T21:34:26.380Z,9.95
2023-02-18T21:36:53.121Z,9.94
2023-02-18T21:39:19.948Z,9.89
2023-02-18T21:41:47.089Z,9.89
2023-02-18T21:44:13.884Z,9.89
2023-02-18T21:46:40.959Z,9.83
2023-02-18T21:49:10.568Z,9.78
2023-02-18T21:52:18.984Z,9.75
2023-02-18T21:54:45.855Z,9.73
2023-02-18T21:57:16.995Z,9.72
2023-02-18T21:59:45.483Z,9.72
2023-02-18T22:02:21.799Z,9.73
2023-02-18T22:04:51.063Z,9.70
2023-02-18T22:07:20.200Z,9.68
2023-02-18T22:09:48.797Z,9.62
2023-02-18T22:12:17.312Z,9.63
2023-02-18T22:14:44.746Z,9.64
2023-02-18T22:17:11.983Z,9.63
2023-02-18T22:19:39.208Z,9.57
2023-02-18T22:22:06.105Z,9.57
2023-02-18T22:24:33.496Z,9.58
2023-02-18T22:27:01.489Z,9.54
2023-02-18T22:29:30.265Z,9.54
2023-02-18T22:31:57.257Z,9.56
2023-02-18T22:34:25.918Z,9.52
2023-02-18T22:36:52.645Z,9.46
2023-02-18T22:39:19.806Z,9.43
2023-02-18T22:41:47.742Z,9.42
2023-02-18T22:44:17.232Z,9.45
2023-02-18T22:46:44.682Z,9.48
2023-02-18T22:49:14.393Z,9.47
2023-02-18T22:51:44.164Z,9.44
2023-02-18T22:54:15.555Z,9.49
2023-02-18T22:56:45.541Z,9.47
2023-02-18T22:59:15.933Z,9.43
2023-02-18T23:01:51.122Z,9.46
2023-02-18T23:04:20.343Z,9.44
2023-02-18T23:06:49.144Z,9.38
2023-02-18T23:09:22.399Z,9.43
2023-02-18T23:11:51.727Z,9.41
2023-02-18T23:14:19.709Z,9.43
2023-02-18T23:17:15.875Z,9.46
2023-02-18T23:19:52.139Z,9.43
2023-02-18T23:22:41.752Z,9.47
2023-02-18T23:25:08.880Z,9.50
2023-02-18T23:27:35.865Z,9.47
2023-02-18T23:30:03.132Z,9.51
2023-02-18T23:32:30.978Z,9.51
2023-02-18T23:34:57.805Z,9.54
2023-02-18T23:37:44.673Z,9.48
2023-02-18T23:40:13.942Z,9.47
2023-02-18T23:42:40.888Z,9.43
2023-02-18T23:45:08.266Z,9.39
2023-02-18T23:47:35.119Z,9.40
2023-02-18T23:50:01.973Z,9.45
2023-02-18T23:52:29.056Z,9.42
2023-02-18T23:54:58.439Z,9.38
2023-02-18T23:57:25.221Z,9.36
2023-02-18T23:59:52.473Z,9.36
